Time,TemperatureF,DewpointF,PressureIn,WindDirection,WindDirectionDegrees,WindSpeedMPH,WindSpeedGustMPH,Humidity,HourlyPrecipIn,Conditions,Clouds,dailyrainin,SolarRadiationWatts/m^2,SoftwareType,DateUTC
2013-11-07 00:00:00,56.5,51.4,30.19,North,0,6.0,14.0,83,0.00,,,0.00,0.00,VWS V14.00,2013-11-07 06:00:00,
2013-11-07 00:15:00,56.4,51.0,30.19,North,0,6.0,15.0,82,0.00,,,0.00,0.00,VWS V14.00,2013-11-07 06:15:00,
2013-11-07 00:30:00,56.3,50.5,30.19,North,0,5.0,14.0,81,0.00,,,0.00,0.00,VWS V14.00,2013-11-07 06:30:00,
2013-11-07 00:45:00,56.2,50.5,30.19,North,0,6.0,16.0,81,0.00,,,0.00,0.00,VWS V14.00,2013-11-07 06:45:00,
2013-11-07 01:00:00,55.9,50.2,30.19,North,0,6.0,16.0,81,0.00,,,0.00,0.00,VWS V14.00,2013-11-07 07:00:00,
2013-11-07 01:15:00,55.7,50.0,30.19,North,0,5.0,15.0,81,0.00,,,0.00,0.00,VWS V14.00,2013-11-07 07:15:00,
2013-11-07 01:30:00,55.5,49.4,30.18,North,0,6.0,14.0,80,0.00,,,0.00,0.00,VWS V14.00,2013-11-07 07:30:00,
2013-11-07 01:45:00,55.3,49.2,30.19,North,0,6.0,14.0,80,0.00,,,0.00,0.00,VWS V14.00,2013-11-07 07:45:00,
2013-11-07 02:00:00,55.1,49.0,30.19,North,0,6.0,16.0,80,0.00,,,0.00,0.00,VWS V14.00,2013-11-07 08:00:00,
2013-11-07 02:15:00,55.0,49.0,30.19,North,0,6.0,15.0,80,0.00,,,0.00,0.00,VWS V14.00,2013-11-07 08:15:00,
2013-11-07 02:30:00,54.8,48.4,30.19,North,0,7.0,17.0,79,0.00,,,0.00,0.00,VWS V14.00,2013-11-07 08:30:00,
2013-11-07 02:45:00,54.7,48.3,30.19,North,0,7.0,20.0,79,0.00,,,0.01,0.00,VWS V14.00,2013-11-07 08:45:00,
2013-11-07 03:00:00,54.5,48.1,30.20,North,0,5.0,18.0,79,0.00,,,0.01,0.00,VWS V14.00,2013-11-07 09:00:00,
2013-11-07 03:15:00,54.2,47.8,30.20,North,0,6.0,17.0,79,0.00,,,0.01,0.00,VWS V14.00,2013-11-07 09:15:00,
2013-11-07 03:30:00,54.0,47.6,30.21,North,0,5.0,13.0,79,0.00,,,0.01,0.00,VWS V14.00,2013-11-07 09:30:00,
2013-11-07 03:45:00,53.6,46.9,30.22,North,0,6.0,14.0,78,0.00,,,0.01,0.00,VWS V14.00,2013-11-07 09:45:00,
2013-11-07 04:00:00,53.2,46.5,30.22,North,0,5.0,12.0,78,0.00,,,0.01,0.00,VWS V14.00,2013-11-07 10:00:00,
2013-11-07 04:15:00,52.8,46.1,30.22,North,0,5.0,15.0,78,0.00,,,0.01,0.00,VWS V14.00,2013-11-07 10:15:00,
2013-11-07 04:30:00,52.5,45.8,30.22,North,0,5.0,13.0,78,0.00,,,0.01,0.00,VWS V14.00,2013-11-07 10:30:00,
2013-11-07 04:45:00,52.4,46.1,30.23,North,0,4.0,12.0,79,0.00,,,0.01,0.00,VWS V14.00,2013-11-07 10:45:00,
2013-11-07 05:15:00,52.4,45.4,30.24,North,0,5.0,15.0,77,0.00,,,0.01,0.00,VWS V14.00,2013-11-07 11:15:00,
2013-11-07 05:30:00,52.5,45.2,30.25,North,0,5.0,14.0,76,0.00,,,0.01,0.00,VWS V14.00,2013-11-07 11:30:00,
2013-11-07 05:45:00,52.5,44.5,30.25,North,0,6.0,15.0,74,0.00,,,0.01,0.00,VWS V14.00,2013-11-07 11:45:00,
2013-11-07 06:00:00,52.5,44.1,30.25,North,0,6.0,16.0,73,0.00,,,0.01,0.00,VWS V14.00,2013-11-07 12:00:00,
2013-11-07 06:15:00,52.4,44.0,30.26,North,0,5.0,11.0,73,0.00,,,0.01,0.00,VWS V14.00,2013-11-07 12:15:00,
2013-11-07 06:30:00,52.5,43.8,30.26,North,0,4.0,12.0,72,0.00,,,0.01,0.00,VWS V14.00,2013-11-07 12:30:00,
2013-11-07 06:45:00,52.3,43.9,30.28,North,0,4.0,11.0,73,0.00,,,0.01,0.00,VWS V14.00,2013-11-07 12:45:00,
2013-11-07 07:00:00,52.3,43.2,30.29,North,0,4.0,11.0,71,0.00,,,0.01,7.00,VWS V14.00,2013-11-07 13:00:00,
2013-11-07 07:15:00,52.4,42.9,30.30,North,0,5.0,16.0,70,0.00,,,0.01,33.00,VWS V14.00,2013-11-07 13:15:00,
2013-11-07 07:30:00,52.6,42.7,30.30,North,0,6.0,16.0,69,0.00,,,0.01,74.00,VWS V14.00,2013-11-07 13:30:00,
2013-11-07 07:45:00,52.1,43.4,30.30,North,0,5.0,13.0,72,0.00,,,0.01,50.00,VWS V14.00,2013-11-07 13:45:00,
2013-11-07 08:00:00,51.7,43.0,30.31,North,0,5.0,14.0,72,0.00,,,0.01,57.00,VWS V14.00,2013-11-07 14:00:00,
2013-11-07 08:15:00,51.5,43.1,30.32,North,5,5.0,5.0,73,0.00,,,0.01,91.00,VWS V14.00,2013-11-07 14:15:00,
2013-11-07 08:30:00,51.6,44.0,30.32,North,0,4.0,14.0,75,0.00,,,0.01,104.00,VWS V14.00,2013-11-07 14:30:00,
2013-11-07 08:45:00,51.7,43.3,30.32,North,0,5.0,12.0,73,0.00,,,0.01,137.00,VWS V14.00,2013-11-07 14:45:00,
2013-11-07 09:00:00,52.0,43.6,30.33,North,0,5.0,15.0,73,0.00,,,0.01,166.00,VWS V14.00,2013-11-07 15:00:00,
2013-11-07 09:15:00,52.1,43.4,30.33,North,0,5.0,17.0,72,0.00,,,0.01,199.00,VWS V14.00,2013-11-07 15:15:00,
2013-11-07 09:30:00,52.3,43.5,30.33,North,0,6.0,13.0,72,0.00,,,0.01,234.00,VWS V14.00,2013-11-07 15:30:00,
2013-11-07 09:45:00,52.4,43.3,30.33,North,0,6.0,16.0,71,0.00,,,0.01,247.00,VWS V14.00,2013-11-07 15:45:00,
2013-11-07 10:00:00,53.2,43.7,30.33,North,0,5.0,14.0,70,0.00,,,0.01,283.00,VWS V14.00,2013-11-07 16:00:00,
2013-11-07 10:15:00,54.2,44.6,30.34,North,0,5.0,15.0,70,0.00,,,0.01,328.00,VWS V14.00,2013-11-07 16:15:00,
2013-11-07 10:30:00,54.8,44.8,30.33,North,0,6.0,15.0,69,0.00,,,0.01,390.00,VWS V14.00,2013-11-07 16:30:00,
2013-11-07 10:45:00,55.9,45.1,30.33,North,0,6.0,16.0,67,0.00,,,0.01,474.00,VWS V14.00,2013-11-07 16:45:00,
2013-11-07 11:00:00,55.8,44.2,30.34,North,0,5.0,12.0,65,0.00,,,0.01,356.00,VWS V14.00,2013-11-07 17:00:00,
2013-11-07 11:15:00,57.8,45.3,30.33,North,0,6.0,16.0,63,0.00,,,0.01,803.00,VWS V14.00,2013-11-07 17:15:00,
2013-11-07 11:30:00,58.6,45.6,30.32,North,0,6.0,15.0,62,0.00,,,0.01,653.00,VWS V14.00,2013-11-07 17:30:00,
2013-11-07 11:45:00,60.1,45.3,30.32,North,0,6.0,17.0,58,0.00,,,0.01,842.00,VWS V14.00,2013-11-07 17:45:00,
2013-11-07 12:00:00,59.9,46.0,30.32,North,0,6.0,13.0,60,0.00,,,0.01,589.00,VWS V14.00,2013-11-07 18:00:00,
2013-11-07 12:15:00,59.8,45.5,30.31,North,0,5.0,13.0,59,0.00,,,0.01,493.00,VWS V14.00,2013-11-07 18:15:00,
2013-11-07 12:30:00,60.4,46.5,30.30,North,0,6.0,14.0,60,0.00,,,0.01,505.00,VWS V14.00,2013-11-07 18:30:00,
2013-11-07 12:45:00,60.9,46.5,30.30,North,0,5.0,12.0,59,0.00,,,0.01,487.00,VWS V14.00,2013-11-07 18:45:00,
2013-11-07 13:00:00,61.9,45.1,30.30,North,0,6.0,17.0,54,0.00,,,0.01,662.00,VWS V14.00,2013-11-07 19:00:00,
2013-11-07 13:15:00,62.3,46.4,30.29,North,0,5.0,13.0,56,0.00,,,0.01,597.00,VWS V14.00,2013-11-07 19:15:00,
2013-11-07 13:30:00,62.0,45.7,30.28,North,0,7.0,15.0,55,0.00,,,0.01,493.00,VWS V14.00,2013-11-07 19:30:00,
2013-11-07 13:45:00,62.2,45.8,30.28,North,0,5.0,16.0,55,0.00,,,0.01,457.00,VWS V14.00,2013-11-07 19:45:00,
2013-11-07 14:00:00,64.0,48.0,30.27,North,0,5.0,14.0,56,0.00,,,0.01,596.00,VWS V14.00,2013-11-07 20:00:00,
2013-11-07 14:15:00,64.5,49.4,30.27,North,0,4.0,13.0,58,0.00,,,0.01,527.00,VWS V14.00,2013-11-07 20:15:00,
2013-11-07 14:30:00,63.8,46.4,30.26,North,0,5.0,15.0,53,0.00,,,0.01,351.00,VWS V14.00,2013-11-07 20:30:00,
2013-11-07 14:45:00,62.8,46.4,30.27,North,0,5.0,12.0,55,0.00,,,0.01,258.00,VWS V14.00,2013-11-07 20:45:00,
2013-11-07 15:00:00,63.0,47.5,30.27,North,0,4.0,11.0,57,0.00,,,0.01,250.00,VWS V14.00,2013-11-07 21:00:00,
2013-11-07 15:15:00,63.8,48.3,30.26,North,0,5.0,11.0,57,0.00,,,0.01,325.00,VWS V14.00,2013-11-07 21:15:00,
2013-11-07 15:30:00,64.1,46.6,30.25,North,0,5.0,12.0,53,0.00,,,0.01,241.00,VWS V14.00,2013-11-07 21:30:00,
2013-11-07 15:45:00,63.8,46.4,30.25,North,0,5.0,15.0,53,0.00,,,0.01,210.00,VWS V14.00,2013-11-07 21:45:00,
2013-11-07 16:00:00,63.4,47.5,30.25,North,0,4.0,11.0,56,0.00,,,0.01,133.00,VWS V14.00,2013-11-07 22:00:00,
2013-11-07 16:15:00,63.3,48.7,30.26,North,0,2.0,7.0,59,0.00,,,0.01,103.00,VWS V14.00,2013-11-07 22:15:00,
2013-11-07 16:30:00,63.4,49.3,30.27,North,0,1.0,7.0,60,0.00,,,0.01,86.00,VWS V14.00,2013-11-07 22:30:00,
2013-11-07 16:45:00,63.1,48.1,30.27,North,0,2.0,8.0,58,0.00,,,0.01,56.00,VWS V14.00,2013-11-07 22:45:00,
2013-11-07 17:00:00,62.6,48.1,30.27,North,0,3.0,7.0,59,0.00,,,0.01,36.00,VWS V14.00,2013-11-07 23:00:00,
2013-11-07 17:15:00,62.0,48.8,30.27,North,0,2.0,7.0,62,0.00,,,0.01,19.00,VWS V14.00,2013-11-07 23:15:00,
2013-11-07 17:30:00,61.5,48.8,30.28,NNW,338,2.0,7.0,63,0.00,,,0.01,6.00,VWS V14.00,2013-11-07 23:30:00,
2013-11-07 17:45:00,61.2,48.5,30.28,NNW,338,2.0,5.0,63,0.00,,,0.01,0.00,VWS V14.00,2013-11-07 23:45:00,
2013-11-07 18:00:00,60.9,48.2,30.28,North,0,2.0,7.0,63,0.00,,,0.01,0.00,VWS V14.00,2013-11-08 00:00:00,
2013-11-07 18:15:00,60.6,48.8,30.29,North,0,1.0,5.0,65,0.00,,,0.01,0.00,VWS V14.00,2013-11-08 00:15:00,
2013-11-07 18:30:00,60.2,48.4,30.29,North,0,1.0,5.0,65,0.00,,,0.01,0.00,VWS V14.00,2013-11-08 00:30:00,
2013-11-07 18:45:00,60.2,49.2,30.29,NNW,338,1.0,6.0,67,0.00,,,0.01,0.00,VWS V14.00,2013-11-08 00:45:00,
2013-11-07 19:00:00,60.1,50.3,30.30,North,0,0.0,2.0,70,0.00,,,0.01,0.00,VWS V14.00,2013-11-08 01:00:00,
2013-11-07 19:15:00,60.0,51.3,30.30,North,0,0.0,1.0,73,0.00,,,0.01,0.00,VWS V14.00,2013-11-08 01:15:00,
2013-11-07 19:30:00,59.8,51.5,30.30,North,0,0.0,3.0,74,0.00,,,0.01,0.00,VWS V14.00,2013-11-08 01:30:00,
2013-11-07 19:45:00,59.5,51.6,30.30,North,0,0.0,2.0,75,0.00,,,0.01,0.00,VWS V14.00,2013-11-08 01:45:00,
2013-11-07 20:00:00,59.4,51.1,30.30,North,0,1.0,4.0,74,0.00,,,0.01,0.00,VWS V14.00,2013-11-08 02:00:00,
2013-11-07 20:15:00,59.2,51.3,30.30,North,0,1.0,3.0,75,0.00,,,0.01,0.00,VWS V14.00,2013-11-08 02:15:00,
2013-11-07 20:30:00,58.9,49.5,30.29,North,0,2.0,7.0,71,0.00,,,0.01,0.00,VWS V14.00,2013-11-08 02:30:00,
2013-11-07 20:45:00,58.7,49.3,30.29,North,0,2.0,7.0,71,0.00,,,0.01,0.00,VWS V14.00,2013-11-08 02:45:00,
2013-11-07 21:00:00,58.5,49.1,30.30,North,0,3.0,8.0,71,0.00,,,0.01,0.00,VWS V14.00,2013-11-08 03:00:00,
2013-11-07 21:15:00,58.5,48.8,30.29,North,0,2.0,7.0,70,0.00,,,0.01,0.00,VWS V14.00,2013-11-08 03:15:00,
2013-11-07 21:30:00,59.0,48.1,30.30,North,0,4.0,10.0,67,0.00,,,0.01,0.00,VWS V14.00,2013-11-08 03:30:00,
2013-11-07 21:45:00,59.1,48.6,30.30,North,0,3.0,7.0,68,0.00,,,0.01,0.00,VWS V14.00,2013-11-08 03:45:00,
2013-11-07 22:00:00,58.7,48.6,30.30,North,0,3.0,8.0,69,0.00,,,0.01,0.00,VWS V14.00,2013-11-08 04:00:00,
2013-11-07 22:15:00,58.2,48.8,30.31,North,0,2.0,8.0,71,0.00,,,0.01,0.00,VWS V14.00,2013-11-08 04:15:00,
2013-11-07 22:30:00,57.5,48.9,30.31,NNW,338,1.0,4.0,73,0.00,,,0.01,0.00,VWS V14.00,2013-11-08 04:30:00,
2013-11-07 22:45:00,57.1,48.9,30.31,North,0,2.0,6.0,74,0.00,,,0.01,0.00,VWS V14.00,2013-11-08 04:45:00,
2013-11-07 23:00:00,58.1,48.4,30.31,North,0,3.0,10.0,70,0.00,,,0.01,0.00,VWS V14.00,2013-11-08 05:00:00,
2013-11-07 23:15:00,58.0,48.3,30.30,North,0,3.0,9.0,70,0.00,,,0.01,0.00,VWS V14.00,2013-11-08 05:15:00,
2013-11-07 23:30:00,57.6,48.3,30.30,NNE,22,2.0,7.0,71,0.00,,,0.01,0.00,VWS V14.00,2013-11-08 05:30:00,
2013-11-07 23:45:00,56.3,48.5,30.30,NNE,22,1.0,5.0,75,0.00,,,0.01,0.00,VWS V14.00,2013-11-08 05:45:00,